sensor_id;sensor_type;location;lat;lon;timestamp;P1;durP1;ratioP1;P2;durP2;ratioP2
4963;SDS011;2497;47.410;9.740;2023-07-20T00:00:21;6.63;;;4.57;;
4963;SDS011;2497;47.410;9.740;2023-07-20T00:03:09;7.40;;;4.30;;
4963;SDS011;2497;47.410;9.740;2023-07-20T00:05:38;7.20;;;4.10;;
4963;SDS011;2497;47.410;9.740;2023-07-20T00:08:05;8.97;;;4.17;;
4963;SDS011;2497;47.410;9.740;2023-07-20T00:10:33;7.20;;;4.20;;
4963;SDS011;2497;47.410;9.740;2023-07-20T00:13:02;11.40;;;4.37;;
4963;SDS011;2497;47.410;9.740;2023-07-20T00:15:29;8.73;;;3.73;;
4963;SDS011;2497;47.410;9.740;2023-07-20T00:17:59;8.40;;;3.73;;
4963;SDS011;2497;47.410;9.740;2023-07-20T00:20:27;9.60;;;5.00;;
4963;SDS011;2497;47.410;9.740;2023-07-20T00:22:54;7.87;;;4.10;;
4963;SDS011;2497;47.410;9.740;2023-07-20T00:25:25;8.83;;;4.53;;
4963;SDS011;2497;47.410;9.740;2023-07-20T00:27:52;7.80;;;4.33;;
4963;SDS011;2497;47.410;9.740;2023-07-20T00:30:20;12.00;;;4.77;;
4963;SDS011;2497;47.410;9.740;2023-07-20T00:32:47;6.90;;;4.00;;
4963;SDS011;2497;47.410;9.740;2023-07-20T00:35:17;7.33;;;3.73;;
4963;SDS011;2497;47.410;9.740;2023-07-20T00:37:46;10.00;;;4.60;;
4963;SDS011;2497;47.410;9.740;2023-07-20T00:40:13;5.10;;;3.33;;
4963;SDS011;2497;47.410;9.740;2023-07-20T00:42:44;6.93;;;3.77;;
4963;SDS011;2497;47.410;9.740;2023-07-20T00:45:12;6.77;;;4.03;;
4963;SDS011;2497;47.410;9.740;2023-07-20T00:47:40;6.07;;;3.70;;
4963;SDS011;2497;47.410;9.740;2023-07-20T00:50:08;7.13;;;3.87;;
4963;SDS011;2497;47.410;9.740;2023-07-20T00:52:40;5.97;;;3.83;;
4963;SDS011;2497;47.410;9.740;2023-07-20T00:55:08;11.27;;;4.90;;
4963;SDS011;2497;47.410;9.740;2023-07-20T00:57:36;8.13;;;4.43;;
4963;SDS011;2497;47.410;9.740;2023-07-20T01:00:04;8.47;;;4.00;;
4963;SDS011;2497;47.410;9.740;2023-07-20T01:02:34;6.20;;;3.70;;
4963;SDS011;2497;47.410;9.740;2023-07-20T01:05:07;7.90;;;3.90;;
4963;SDS011;2497;47.410;9.740;2023-07-20T01:07:38;8.43;;;4.20;;
4963;SDS011;2497;47.410;9.740;2023-07-20T01:10:25;11.27;;;4.50;;
4963;SDS011;2497;47.410;9.740;2023-07-20T01:13:02;5.60;;;3.67;;
4963;SDS011;2497;47.410;9.740;2023-07-20T01:15:33;8.70;;;4.30;;
4963;SDS011;2497;47.410;9.740;2023-07-20T01:18:02;9.47;;;4.77;;
4963;SDS011;2497;47.410;9.740;2023-07-20T01:20:30;7.03;;;4.00;;
4963;SDS011;2497;47.410;9.740;2023-07-20T01:26:12;6.70;;;3.87;;
4963;SDS011;2497;47.410;9.740;2023-07-20T01:29:03;6.13;;;3.50;;
4963;SDS011;2497;47.410;9.740;2023-07-20T01:31:46;6.20;;;3.43;;
4963;SDS011;2497;47.410;9.740;2023-07-20T01:34:20;7.93;;;3.77;;
4963;SDS011;2497;47.410;9.740;2023-07-20T01:36:56;7.97;;;4.07;;
4963;SDS011;2497;47.410;9.740;2023-07-20T01:39:26;10.07;;;4.33;;
4963;SDS011;2497;47.410;9.740;2023-07-20T01:41:56;7.40;;;2.90;;
4963;SDS011;2497;47.410;9.740;2023-07-20T01:44:23;7.90;;;4.07;;
4963;SDS011;2497;47.410;9.740;2023-07-20T01:46:54;12.20;;;3.80;;
4963;SDS011;2497;47.410;9.740;2023-07-20T01:49:23;6.10;;;3.30;;
4963;SDS011;2497;47.410;9.740;2023-07-20T01:51:50;6.20;;;4.10;;
4963;SDS011;2497;47.410;9.740;2023-07-20T01:54:17;8.50;;;3.80;;
4963;SDS011;2497;47.410;9.740;2023-07-20T01:56:44;8.77;;;3.60;;
4963;SDS011;2497;47.410;9.740;2023-07-20T01:59:12;6.93;;;3.67;;
4963;SDS011;2497;47.410;9.740;2023-07-20T02:01:42;9.87;;;4.17;;
4963;SDS011;2497;47.410;9.740;2023-07-20T02:04:11;6.60;;;3.93;;
4963;SDS011;2497;47.410;9.740;2023-07-20T02:06:39;10.67;;;4.13;;
4963;SDS011;2497;47.410;9.740;2023-07-20T02:09:06;4.17;;;3.40;;
4963;SDS011;2497;47.410;9.740;2023-07-20T02:11:35;10.67;;;4.10;;
4963;SDS011;2497;47.410;9.740;2023-07-20T02:14:04;6.97;;;4.10;;
4963;SDS011;2497;47.410;9.740;2023-07-20T02:16:31;13.27;;;4.73;;
4963;SDS011;2497;47.410;9.740;2023-07-20T02:19:00;9.47;;;3.73;;
4963;SDS011;2497;47.410;9.740;2023-07-20T02:21:35;11.10;;;4.57;;
4963;SDS011;2497;47.410;9.740;2023-07-20T02:24:02;9.93;;;4.10;;
4963;SDS011;2497;47.410;9.740;2023-07-20T02:26:30;6.00;;;3.07;;
4963;SDS011;2497;47.410;9.740;2023-07-20T02:28:58;4.40;;;3.43;;
4963;SDS011;2497;47.410;9.740;2023-07-20T02:31:25;5.83;;;2.83;;
4963;SDS011;2497;47.410;9.740;2023-07-20T02:33:54;6.97;;;3.87;;
4963;SDS011;2497;47.410;9.740;2023-07-20T02:36:22;7.17;;;4.30;;
4963;SDS011;2497;47.410;9.740;2023-07-20T02:38:50;5.30;;;3.57;;
4963;SDS011;2497;47.410;9.740;2023-07-20T02:41:24;13.73;;;3.97;;
4963;SDS011;2497;47.410;9.740;2023-07-20T02:43:54;5.33;;;3.37;;
4963;SDS011;2497;47.410;9.740;2023-07-20T02:46:23;7.40;;;3.10;;
4963;SDS011;2497;47.410;9.740;2023-07-20T02:48:50;7.60;;;2.77;;
4963;SDS011;2497;47.410;9.740;2023-07-20T02:51:18;6.60;;;3.00;;
4963;SDS011;2497;47.410;9.740;2023-07-20T02:53:49;6.50;;;3.00;;
4963;SDS011;2497;47.410;9.740;2023-07-20T02:56:26;3.10;;;2.37;;
4963;SDS011;2497;47.410;9.740;2023-07-20T02:58:53;5.70;;;3.27;;
4963;SDS011;2497;47.410;9.740;2023-07-20T03:01:23;6.63;;;3.40;;
4963;SDS011;2497;47.410;9.740;2023-07-20T03:03:54;4.10;;;2.70;;
4963;SDS011;2497;47.410;9.740;2023-07-20T03:06:21;5.63;;;3.10;;
4963;SDS011;2497;47.410;9.740;2023-07-20T03:08:48;7.07;;;3.70;;
4963;SDS011;2497;47.410;9.740;2023-07-20T03:11:18;7.20;;;2.70;;
4963;SDS011;2497;47.410;9.740;2023-07-20T03:13:48;8.57;;;3.47;;
4963;SDS011;2497;47.410;9.740;2023-07-20T03:16:19;6.63;;;3.37;;
4963;SDS011;2497;47.410;9.740;2023-07-20T03:18:46;6.83;;;3.07;;
4963;SDS011;2497;47.410;9.740;2023-07-20T03:21:13;8.13;;;3.20;;
4963;SDS011;2497;47.410;9.740;2023-07-20T03:23:41;5.70;;;3.47;;
4963;SDS011;2497;47.410;9.740;2023-07-20T03:26:11;7.13;;;3.17;;
4963;SDS011;2497;47.410;9.740;2023-07-20T03:28:39;6.57;;;3.37;;
4963;SDS011;2497;47.410;9.740;2023-07-20T03:31:06;5.43;;;3.03;;
4963;SDS011;2497;47.410;9.740;2023-07-20T03:33:33;5.30;;;2.43;;
4963;SDS011;2497;47.410;9.740;2023-07-20T03:36:01;5.40;;;2.67;;
4963;SDS011;2497;47.410;9.740;2023-07-20T03:38:28;6.80;;;2.93;;
4963;SDS011;2497;47.410;9.740;2023-07-20T03:40:56;4.90;;;2.97;;
4963;SDS011;2497;47.410;9.740;2023-07-20T03:43:26;6.77;;;3.20;;
4963;SDS011;2497;47.410;9.740;2023-07-20T03:45:54;6.33;;;2.90;;
4963;SDS011;2497;47.410;9.740;2023-07-20T03:48:22;5.20;;;2.50;;
4963;SDS011;2497;47.410;9.740;2023-07-20T03:50:50;8.03;;;3.00;;
4963;SDS011;2497;47.410;9.740;2023-07-20T03:53:19;6.63;;;3.40;;
4963;SDS011;2497;47.410;9.740;2023-07-20T03:55:51;11.10;;;3.00;;
4963;SDS011;2497;47.410;9.740;2023-07-20T03:58:21;4.90;;;3.00;;
4963;SDS011;2497;47.410;9.740;2023-07-20T04:00:51;5.60;;;2.80;;
4963;SDS011;2497;47.410;9.740;2023-07-20T04:03:21;8.37;;;3.50;;
4963;SDS011;2497;47.410;9.740;2023-07-20T04:05:50;8.17;;;2.80;;
4963;SDS011;2497;47.410;9.740;2023-07-20T04:08:23;4.47;;;2.60;;
4963;SDS011;2497;47.410;9.740;2023-07-20T04:10:51;4.87;;;2.80;;
4963;SDS011;2497;47.410;9.740;2023-07-20T04:13:18;7.50;;;2.93;;
4963;SDS011;2497;47.410;9.740;2023-07-20T04:15:46;5.10;;;2.67;;
4963;SDS011;2497;47.410;9.740;2023-07-20T04:18:17;5.07;;;2.63;;
4963;SDS011;2497;47.410;9.740;2023-07-20T04:20:44;4.60;;;2.97;;
4963;SDS011;2497;47.410;9.740;2023-07-20T04:23:12;3.97;;;2.57;;
4963;SDS011;2497;47.410;9.740;2023-07-20T04:25:39;8.57;;;3.40;;
4963;SDS011;2497;47.410;9.740;2023-07-20T04:28:06;9.00;;;3.37;;
4963;SDS011;2497;47.410;9.740;2023-07-20T04:30:39;4.37;;;2.93;;
4963;SDS011;2497;47.410;9.740;2023-07-20T04:33:06;4.10;;;2.70;;
4963;SDS011;2497;47.410;9.740;2023-07-20T04:35:50;7.10;;;3.33;;
4963;SDS011;2497;47.410;9.740;2023-07-20T04:38:18;5.90;;;3.00;;
4963;SDS011;2497;47.410;9.740;2023-07-20T04:40:47;5.10;;;2.97;;
4963;SDS011;2497;47.410;9.740;2023-07-20T04:43:16;9.20;;;3.13;;
4963;SDS011;2497;47.410;9.740;2023-07-20T04:45:44;7.60;;;3.17;;
4963;SDS011;2497;47.410;9.740;2023-07-20T04:48:11;7.90;;;2.83;;
4963;SDS011;2497;47.410;9.740;2023-07-20T04:50:40;5.20;;;3.40;;
4963;SDS011;2497;47.410;9.740;2023-07-20T04:53:10;2.90;;;2.20;;
4963;SDS011;2497;47.410;9.740;2023-07-20T04:55:37;6.13;;;2.47;;
4963;SDS011;2497;47.410;9.740;2023-07-20T04:58:05;7.63;;;2.53;;
4963;SDS011;2497;47.410;9.740;2023-07-20T05:00:33;5.90;;;2.90;;
4963;SDS011;2497;47.410;9.740;2023-07-20T05:03:00;12.33;;;2.63;;
4963;SDS011;2497;47.410;9.740;2023-07-20T05:05:27;4.30;;;2.53;;
4963;SDS011;2497;47.410;9.740;2023-07-20T05:07:54;5.83;;;2.60;;
4963;SDS011;2497;47.410;9.740;2023-07-20T05:10:22;6.10;;;2.70;;
4963;SDS011;2497;47.410;9.740;2023-07-20T05:12:50;3.70;;;2.53;;
4963;SDS011;2497;47.410;9.740;2023-07-20T05:15:17;4.17;;;2.60;;
4963;SDS011;2497;47.410;9.740;2023-07-20T05:17:45;9.63;;;2.93;;
4963;SDS011;2497;47.410;9.740;2023-07-20T05:20:15;5.97;;;2.93;;
4963;SDS011;2497;47.410;9.740;2023-07-20T05:22:42;5.23;;;2.70;;
4963;SDS011;2497;47.410;9.740;2023-07-20T05:25:09;5.87;;;3.30;;
4963;SDS011;2497;47.410;9.740;2023-07-20T05:27:38;8.73;;;3.57;;
4963;SDS011;2497;47.410;9.740;2023-07-20T05:30:06;15.53;;;3.17;;
4963;SDS011;2497;47.410;9.740;2023-07-20T05:32:33;4.70;;;2.73;;
4963;SDS011;2497;47.410;9.740;2023-07-20T05:35:00;8.23;;;3.43;;
4963;SDS011;2497;47.410;9.740;2023-07-20T05:37:30;4.23;;;2.83;;
4963;SDS011;2497;47.410;9.740;2023-07-20T05:39:57;5.40;;;3.33;;
4963;SDS011;2497;47.410;9.740;2023-07-20T05:42:25;3.97;;;2.90;;
4963;SDS011;2497;47.410;9.740;2023-07-20T05:44:54;6.00;;;2.90;;
4963;SDS011;2497;47.410;9.740;2023-07-20T05:47:21;9.83;;;3.60;;
4963;SDS011;2497;47.410;9.740;2023-07-20T05:49:48;6.47;;;3.37;;
4963;SDS011;2497;47.410;9.740;2023-07-20T05:52:16;7.60;;;3.83;;
4963;SDS011;2497;47.410;9.740;2023-07-20T05:54:43;6.13;;;3.57;;
4963;SDS011;2497;47.410;9.740;2023-07-20T05:57:11;6.30;;;2.53;;
4963;SDS011;2497;47.410;9.740;2023-07-20T05:59:40;8.43;;;3.70;;
4963;SDS011;2497;47.410;9.740;2023-07-20T06:02:18;7.97;;;3.80;;
4963;SDS011;2497;47.410;9.740;2023-07-20T06:04:45;5.87;;;3.40;;
4963;SDS011;2497;47.410;9.740;2023-07-20T06:07:13;6.53;;;3.57;;
4963;SDS011;2497;47.410;9.740;2023-07-20T06:09:40;6.53;;;3.60;;
4963;SDS011;2497;47.410;9.740;2023-07-20T06:12:10;8.17;;;3.40;;
4963;SDS011;2497;47.410;9.740;2023-07-20T06:14:37;9.53;;;3.80;;
4963;SDS011;2497;47.410;9.740;2023-07-20T06:17:05;5.23;;;3.20;;
4963;SDS011;2497;47.410;9.740;2023-07-20T06:19:34;11.00;;;3.87;;
4963;SDS011;2497;47.410;9.740;2023-07-20T06:22:04;6.13;;;4.13;;
4963;SDS011;2497;47.410;9.740;2023-07-20T06:24:33;8.20;;;3.50;;
4963;SDS011;2497;47.410;9.740;2023-07-20T06:27:00;6.00;;;2.80;;
4963;SDS011;2497;47.410;9.740;2023-07-20T06:29:31;7.30;;;2.60;;
4963;SDS011;2497;47.410;9.740;2023-07-20T06:31:59;9.03;;;2.67;;
4963;SDS011;2497;47.410;9.740;2023-07-20T06:34:26;3.50;;;2.37;;
4963;SDS011;2497;47.410;9.740;2023-07-20T06:36:56;3.97;;;2.50;;
4963;SDS011;2497;47.410;9.740;2023-07-20T06:39:23;9.33;;;2.40;;
4963;SDS011;2497;47.410;9.740;2023-07-20T06:41:51;4.77;;;2.63;;
4963;SDS011;2497;47.410;9.740;2023-07-20T06:44:18;6.40;;;2.80;;
4963;SDS011;2497;47.410;9.740;2023-07-20T06:46:45;7.83;;;2.80;;
4963;SDS011;2497;47.410;9.740;2023-07-20T06:49:19;7.17;;;2.40;;
4963;SDS011;2497;47.410;9.740;2023-07-20T06:51:51;4.97;;;2.73;;
4963;SDS011;2497;47.410;9.740;2023-07-20T06:54:20;7.13;;;2.80;;
4963;SDS011;2497;47.410;9.740;2023-07-20T06:56:47;6.40;;;2.60;;
4963;SDS011;2497;47.410;9.740;2023-07-20T06:59:14;6.43;;;2.50;;
4963;SDS011;2497;47.410;9.740;2023-07-20T07:01:43;4.50;;;2.30;;
4963;SDS011;2497;47.410;9.740;2023-07-20T07:04:10;4.30;;;2.30;;
4963;SDS011;2497;47.410;9.740;2023-07-20T07:06:37;6.17;;;2.43;;
4963;SDS011;2497;47.410;9.740;2023-07-20T07:09:04;11.63;;;2.60;;
4963;SDS011;2497;47.410;9.740;2023-07-20T07:11:35;6.73;;;2.03;;
4963;SDS011;2497;47.410;9.740;2023-07-20T07:14:02;4.07;;;2.17;;
4963;SDS011;2497;47.410;9.740;2023-07-20T07:16:29;5.90;;;2.23;;
4963;SDS011;2497;47.410;9.740;2023-07-20T07:18:57;6.60;;;2.27;;
4963;SDS011;2497;47.410;9.740;2023-07-20T07:21:24;4.33;;;2.90;;
4963;SDS011;2497;47.410;9.740;2023-07-20T07:23:52;7.60;;;3.37;;
4963;SDS011;2497;47.410;9.740;2023-07-20T07:26:24;4.50;;;2.10;;
4963;SDS011;2497;47.410;9.740;2023-07-20T07:28:53;6.57;;;2.40;;
4963;SDS011;2497;47.410;9.740;2023-07-20T07:31:23;4.20;;;2.50;;
4963;SDS011;2497;47.410;9.740;2023-07-20T07:33:58;4.60;;;2.60;;
4963;SDS011;2497;47.410;9.740;2023-07-20T07:36:25;2.93;;;2.43;;
4963;SDS011;2497;47.410;9.740;2023-07-20T07:38:52;6.27;;;2.27;;
4963;SDS011;2497;47.410;9.740;2023-07-20T07:41:19;3.83;;;2.03;;
4963;SDS011;2497;47.410;9.740;2023-07-20T07:43:47;4.73;;;2.70;;
4963;SDS011;2497;47.410;9.740;2023-07-20T07:46:16;4.23;;;2.40;;
4963;SDS011;2497;47.410;9.740;2023-07-20T07:48:43;4.00;;;2.27;;
4963;SDS011;2497;47.410;9.740;2023-07-20T07:51:10;5.57;;;2.20;;
4963;SDS011;2497;47.410;9.740;2023-07-20T07:53:40;2.73;;;2.10;;
4963;SDS011;2497;47.410;9.740;2023-07-20T07:56:10;4.67;;;2.40;;
4963;SDS011;2497;47.410;9.740;2023-07-20T07:58:37;7.90;;;2.40;;
4963;SDS011;2497;47.410;9.740;2023-07-20T08:01:04;7.03;;;2.43;;
4963;SDS011;2497;47.410;9.740;2023-07-20T08:03:33;7.40;;;2.10;;
4963;SDS011;2497;47.410;9.740;2023-07-20T08:06:02;3.63;;;2.23;;
4963;SDS011;2497;47.410;9.740;2023-07-20T08:08:30;2.90;;;2.20;;
4963;SDS011;2497;47.410;9.740;2023-07-20T08:10:57;8.00;;;2.40;;
4963;SDS011;2497;47.410;9.740;2023-07-20T08:13:24;8.37;;;2.27;;
4963;SDS011;2497;47.410;9.740;2023-07-20T08:15:52;9.60;;;2.43;;
4963;SDS011;2497;47.410;9.740;2023-07-20T08:18:21;4.73;;;2.20;;
4963;SDS011;2497;47.410;9.740;2023-07-20T08:20:50;6.90;;;2.60;;
4963;SDS011;2497;47.410;9.740;2023-07-20T08:23:17;3.03;;;2.43;;
4963;SDS011;2497;47.410;9.740;2023-07-20T08:25:44;4.17;;;2.40;;
4963;SDS011;2497;47.410;9.740;2023-07-20T08:28:13;6.80;;;2.40;;
4963;SDS011;2497;47.410;9.740;2023-07-20T08:30:41;4.00;;;2.30;;
4963;SDS011;2497;47.410;9.740;2023-07-20T08:33:09;2.70;;;2.40;;
4963;SDS011;2497;47.410;9.740;2023-07-20T08:35:37;5.80;;;2.60;;
4963;SDS011;2497;47.410;9.740;2023-07-20T08:38:05;7.63;;;2.70;;
4963;SDS011;2497;47.410;9.740;2023-07-20T08:40:33;3.50;;;2.30;;
4963;SDS011;2497;47.410;9.740;2023-07-20T08:43:05;6.67;;;2.90;;
4963;SDS011;2497;47.410;9.740;2023-07-20T08:45:32;4.47;;;2.50;;
4963;SDS011;2497;47.410;9.740;2023-07-20T08:48:00;6.50;;;2.13;;
4963;SDS011;2497;47.410;9.740;2023-07-20T08:50:28;6.70;;;2.60;;
4963;SDS011;2497;47.410;9.740;2023-07-20T08:52:57;6.40;;;3.03;;
4963;SDS011;2497;47.410;9.740;2023-07-20T08:55:29;3.67;;;2.10;;
4963;SDS011;2497;47.410;9.740;2023-07-20T08:57:58;6.70;;;2.60;;
4963;SDS011;2497;47.410;9.740;2023-07-20T09:00:26;4.50;;;3.00;;
4963;SDS011;2497;47.410;9.740;2023-07-20T09:02:54;3.33;;;2.50;;
4963;SDS011;2497;47.410;9.740;2023-07-20T09:05:22;4.00;;;1.90;;
4963;SDS011;2497;47.410;9.740;2023-07-20T09:07:51;6.77;;;2.60;;
4963;SDS011;2497;47.410;9.740;2023-07-20T09:10:20;14.70;;;2.60;;
4963;SDS011;2497;47.410;9.740;2023-07-20T09:12:49;5.60;;;2.53;;
4963;SDS011;2497;47.410;9.740;2023-07-20T09:15:16;3.20;;;2.30;;
4963;SDS011;2497;47.410;9.740;2023-07-20T09:17:47;5.60;;;2.83;;
4963;SDS011;2497;47.410;9.740;2023-07-20T09:20:16;4.33;;;2.50;;
4963;SDS011;2497;47.410;9.740;2023-07-20T09:22:44;3.40;;;2.27;;
4963;SDS011;2497;47.410;9.740;2023-07-20T09:25:12;7.33;;;2.43;;
4963;SDS011;2497;47.410;9.740;2023-07-20T09:27:41;4.10;;;2.40;;
4963;SDS011;2497;47.410;9.740;2023-07-20T09:30:10;3.70;;;3.00;;
4963;SDS011;2497;47.410;9.740;2023-07-20T09:32:40;5.17;;;2.50;;
4963;SDS011;2497;47.410;9.740;2023-07-20T09:35:13;4.10;;;2.60;;
4963;SDS011;2497;47.410;9.740;2023-07-20T09:37:45;4.60;;;2.27;;
4963;SDS011;2497;47.410;9.740;2023-07-20T09:40:15;5.50;;;2.63;;
4963;SDS011;2497;47.410;9.740;2023-07-20T09:42:43;10.47;;;2.83;;
4963;SDS011;2497;47.410;9.740;2023-07-20T09:45:12;9.13;;;2.40;;
4963;SDS011;2497;47.410;9.740;2023-07-20T09:47:40;5.20;;;2.43;;
4963;SDS011;2497;47.410;9.740;2023-07-20T09:50:08;6.30;;;2.90;;
4963;SDS011;2497;47.410;9.740;2023-07-20T09:52:40;12.10;;;3.23;;
4963;SDS011;2497;47.410;9.740;2023-07-20T09:55:09;8.80;;;3.10;;
4963;SDS011;2497;47.410;9.740;2023-07-20T09:57:37;2.93;;;2.10;;
4963;SDS011;2497;47.410;9.740;2023-07-20T10:00:05;3.53;;;2.27;;
4963;SDS011;2497;47.410;9.740;2023-07-20T10:02:42;4.77;;;2.70;;
4963;SDS011;2497;47.410;9.740;2023-07-20T10:05:11;3.80;;;2.30;;
4963;SDS011;2497;47.410;9.740;2023-07-20T10:07:43;15.33;;;2.87;;
4963;SDS011;2497;47.410;9.740;2023-07-20T10:10:13;6.10;;;2.33;;
4963;SDS011;2497;47.410;9.740;2023-07-20T10:12:43;5.60;;;2.53;;
4963;SDS011;2497;47.410;9.740;2023-07-20T10:15:15;6.07;;;2.83;;
4963;SDS011;2497;47.410;9.740;2023-07-20T10:17:53;5.40;;;2.57;;
4963;SDS011;2497;47.410;9.740;2023-07-20T10:20:31;6.30;;;2.10;;
4963;SDS011;2497;47.410;9.740;2023-07-20T10:23:03;6.33;;;2.40;;
4963;SDS011;2497;47.410;9.740;2023-07-20T10:25:31;4.37;;;2.30;;
4963;SDS011;2497;47.410;9.740;2023-07-20T10:28:03;5.10;;;2.37;;
4963;SDS011;2497;47.410;9.740;2023-07-20T10:30:33;7.03;;;2.23;;
4963;SDS011;2497;47.410;9.740;2023-07-20T10:33:10;5.77;;;2.03;;
4963;SDS011;2497;47.410;9.740;2023-07-20T10:35:50;2.77;;;2.10;;
4963;SDS011;2497;47.410;9.740;2023-07-20T10:38:18;3.97;;;2.40;;
4963;SDS011;2497;47.410;9.740;2023-07-20T10:40:53;4.73;;;2.53;;
4963;SDS011;2497;47.410;9.740;2023-07-20T10:43:23;3.40;;;1.67;;
4963;SDS011;2497;47.410;9.740;2023-07-20T10:45:51;2.77;;;1.77;;
4963;SDS011;2497;47.410;9.740;2023-07-20T10:48:21;2.53;;;1.80;;
4963;SDS011;2497;47.410;9.740;2023-07-20T10:51:08;3.17;;;1.77;;
4963;SDS011;2497;47.410;9.740;2023-07-20T10:53:36;4.20;;;2.13;;
4963;SDS011;2497;47.410;9.740;2023-07-20T10:56:07;3.50;;;1.70;;
4963;SDS011;2497;47.410;9.740;2023-07-20T10:58:35;2.77;;;1.80;;
4963;SDS011;2497;47.410;9.740;2023-07-20T11:01:02;3.10;;;1.80;;
4963;SDS011;2497;47.410;9.740;2023-07-20T11:03:33;3.90;;;1.67;;
4963;SDS011;2497;47.410;9.740;2023-07-20T11:09:04;6.63;;;1.77;;
4963;SDS011;2497;47.410;9.740;2023-07-20T11:11:36;2.67;;;1.83;;
4963;SDS011;2497;47.410;9.740;2023-07-20T11:14:04;2.97;;;1.83;;
4963;SDS011;2497;47.410;9.740;2023-07-20T11:16:39;2.97;;;1.77;;
4963;SDS011;2497;47.410;9.740;2023-07-20T11:19:16;2.50;;;1.70;;
4963;SDS011;2497;47.410;9.740;2023-07-20T11:21:44;2.27;;;1.97;;
4963;SDS011;2497;47.410;9.740;2023-07-20T11:24:13;6.40;;;2.03;;
4963;SDS011;2497;47.410;9.740;2023-07-20T11:26:45;4.67;;;2.30;;
4963;SDS011;2497;47.410;9.740;2023-07-20T11:29:14;3.80;;;1.80;;
4963;SDS011;2497;47.410;9.740;2023-07-20T11:31:43;4.10;;;1.80;;
4963;SDS011;2497;47.410;9.740;2023-07-20T11:34:11;6.17;;;2.00;;
4963;SDS011;2497;47.410;9.740;2023-07-20T11:36:41;3.03;;;2.13;;
4963;SDS011;2497;47.410;9.740;2023-07-20T11:39:09;3.40;;;2.20;;
4963;SDS011;2497;47.410;9.740;2023-07-20T11:41:37;7.37;;;2.50;;
4963;SDS011;2497;47.410;9.740;2023-07-20T11:44:05;2.60;;;2.13;;
4963;SDS011;2497;47.410;9.740;2023-07-20T11:46:33;5.40;;;2.00;;
4963;SDS011;2497;47.410;9.740;2023-07-20T11:49:01;2.90;;;2.03;;
4963;SDS011;2497;47.410;9.740;2023-07-20T11:51:29;7.43;;;2.40;;
4963;SDS011;2497;47.410;9.740;2023-07-20T11:53:59;2.63;;;1.77;;
4963;SDS011;2497;47.410;9.740;2023-07-20T11:56:30;3.43;;;2.17;;
4963;SDS011;2497;47.410;9.740;2023-07-20T11:58:58;9.30;;;2.03;;
4963;SDS011;2497;47.410;9.740;2023-07-20T12:01:26;4.63;;;2.30;;
4963;SDS011;2497;47.410;9.740;2023-07-20T12:03:56;4.17;;;2.20;;
4963;SDS011;2497;47.410;9.740;2023-07-20T12:06:24;2.77;;;2.20;;
4963;SDS011;2497;47.410;9.740;2023-07-20T12:08:54;2.20;;;1.93;;
4963;SDS011;2497;47.410;9.740;2023-07-20T12:11:36;3.87;;;2.63;;
4963;SDS011;2497;47.410;9.740;2023-07-20T12:14:04;6.87;;;2.30;;
4963;SDS011;2497;47.410;9.740;2023-07-20T12:16:34;7.50;;;2.27;;
4963;SDS011;2497;47.410;9.740;2023-07-20T12:19:04;5.30;;;2.10;;
4963;SDS011;2497;47.410;9.740;2023-07-20T12:21:33;3.87;;;2.17;;
4963;SDS011;2497;47.410;9.740;2023-07-20T12:24:02;10.33;;;2.50;;
4963;SDS011;2497;47.410;9.740;2023-07-20T12:26:30;5.57;;;2.40;;
4963;SDS011;2497;47.410;9.740;2023-07-20T12:29:00;3.47;;;2.10;;
4963;SDS011;2497;47.410;9.740;2023-07-20T12:31:29;4.10;;;2.30;;
4963;SDS011;2497;47.410;9.740;2023-07-20T12:33:59;4.00;;;2.67;;
4963;SDS011;2497;47.410;9.740;2023-07-20T12:36:26;4.57;;;2.00;;
4963;SDS011;2497;47.410;9.740;2023-07-20T12:38:54;6.50;;;2.77;;
4963;SDS011;2497;47.410;9.740;2023-07-20T12:41:22;4.50;;;2.13;;
4963;SDS011;2497;47.410;9.740;2023-07-20T12:43:49;4.87;;;2.10;;
4963;SDS011;2497;47.410;9.740;2023-07-20T12:46:20;3.77;;;2.17;;
4963;SDS011;2497;47.410;9.740;2023-07-20T12:48:47;3.87;;;2.77;;
4963;SDS011;2497;47.410;9.740;2023-07-20T12:51:14;5.53;;;3.03;;
4963;SDS011;2497;47.410;9.740;2023-07-20T12:53:42;6.03;;;2.63;;
4963;SDS011;2497;47.410;9.740;2023-07-20T12:56:09;8.83;;;2.83;;
4963;SDS011;2497;47.410;9.740;2023-07-20T12:58:38;4.43;;;2.43;;
4963;SDS011;2497;47.410;9.740;2023-07-20T13:01:05;3.67;;;2.63;;
4963;SDS011;2497;47.410;9.740;2023-07-20T13:03:34;3.50;;;3.00;;
4963;SDS011;2497;47.410;9.740;2023-07-20T13:06:01;4.07;;;2.67;;
4963;SDS011;2497;47.410;9.740;2023-07-20T13:08:28;9.80;;;2.90;;
4963;SDS011;2497;47.410;9.740;2023-07-20T13:10:55;6.17;;;2.80;;
4963;SDS011;2497;47.410;9.740;2023-07-20T13:13:22;6.13;;;2.87;;
4963;SDS011;2497;47.410;9.740;2023-07-20T13:15:50;3.77;;;2.20;;
4963;SDS011;2497;47.410;9.740;2023-07-20T13:18:19;7.10;;;2.53;;
4963;SDS011;2497;47.410;9.740;2023-07-20T13:20:48;5.60;;;2.70;;
4963;SDS011;2497;47.410;9.740;2023-07-20T13:23:15;3.87;;;2.40;;
4963;SDS011;2497;47.410;9.740;2023-07-20T13:25:44;15.77;;;2.93;;
4963;SDS011;2497;47.410;9.740;2023-07-20T13:28:11;4.47;;;2.63;;
4963;SDS011;2497;47.410;9.740;2023-07-20T13:30:40;4.53;;;2.57;;
4963;SDS011;2497;47.410;9.740;2023-07-20T13:33:10;6.23;;;3.20;;
4963;SDS011;2497;47.410;9.740;2023-07-20T13:35:39;4.50;;;2.30;;
4963;SDS011;2497;47.410;9.740;2023-07-20T13:38:08;6.80;;;3.13;;
4963;SDS011;2497;47.410;9.740;2023-07-20T13:40:35;4.73;;;2.73;;
4963;SDS011;2497;47.410;9.740;2023-07-20T13:43:03;4.00;;;2.57;;
4963;SDS011;2497;47.410;9.740;2023-07-20T13:45:30;6.97;;;2.83;;
4963;SDS011;2497;47.410;9.740;2023-07-20T13:47:57;5.30;;;2.90;;
4963;SDS011;2497;47.410;9.740;2023-07-20T13:50:24;5.90;;;2.70;;
4963;SDS011;2497;47.410;9.740;2023-07-20T13:52:53;5.50;;;2.73;;
4963;SDS011;2497;47.410;9.740;2023-07-20T13:55:22;5.90;;;2.80;;
4963;SDS011;2497;47.410;9.740;2023-07-20T13:57:49;4.33;;;2.80;;
4963;SDS011;2497;47.410;9.740;2023-07-20T14:00:17;4.00;;;2.80;;
4963;SDS011;2497;47.410;9.740;2023-07-20T14:02:44;3.87;;;2.47;;
4963;SDS011;2497;47.410;9.740;2023-07-20T14:05:11;7.90;;;2.67;;
4963;SDS011;2497;47.410;9.740;2023-07-20T14:07:42;9.60;;;2.50;;
4963;SDS011;2497;47.410;9.740;2023-07-20T14:10:17;4.97;;;3.13;;
4963;SDS011;2497;47.410;9.740;2023-07-20T14:12:46;7.63;;;2.70;;
4963;SDS011;2497;47.410;9.740;2023-07-20T14:15:13;18.43;;;3.57;;
4963;SDS011;2497;47.410;9.740;2023-07-20T14:17:41;4.90;;;2.23;;
4963;SDS011;2497;47.410;9.740;2023-07-20T14:20:08;9.07;;;2.93;;
4963;SDS011;2497;47.410;9.740;2023-07-20T14:22:36;9.30;;;2.70;;
4963;SDS011;2497;47.410;9.740;2023-07-20T14:25:57;6.77;;;3.10;;
4963;SDS011;2497;47.410;9.740;2023-07-20T14:29:19;7.37;;;2.97;;
4963;SDS011;2497;47.410;9.740;2023-07-20T14:31:47;6.60;;;2.33;;
4963;SDS011;2497;47.410;9.740;2023-07-20T14:34:15;4.60;;;2.70;;
4963;SDS011;2497;47.410;9.740;2023-07-20T14:36:43;6.10;;;2.50;;
4963;SDS011;2497;47.410;9.740;2023-07-20T14:39:17;4.57;;;2.80;;
4963;SDS011;2497;47.410;9.740;2023-07-20T14:41:46;2.97;;;2.00;;
4963;SDS011;2497;47.410;9.740;2023-07-20T14:44:15;5.73;;;2.93;;
4963;SDS011;2497;47.410;9.740;2023-07-20T14:46:47;3.30;;;2.30;;
4963;SDS011;2497;47.410;9.740;2023-07-20T14:49:14;3.87;;;2.80;;
4963;SDS011;2497;47.410;9.740;2023-07-20T14:51:42;5.80;;;3.10;;
4963;SDS011;2497;47.410;9.740;2023-07-20T14:54:12;4.10;;;3.03;;
4963;SDS011;2497;47.410;9.740;2023-07-20T14:56:39;8.47;;;2.60;;
4963;SDS011;2497;47.410;9.740;2023-07-20T14:59:15;7.93;;;2.93;;
4963;SDS011;2497;47.410;9.740;2023-07-20T15:01:44;6.23;;;3.40;;
4963;SDS011;2497;47.410;9.740;2023-07-20T15:04:13;4.60;;;2.83;;
4963;SDS011;2497;47.410;9.740;2023-07-20T15:06:40;4.07;;;2.57;;
4963;SDS011;2497;47.410;9.740;2023-07-20T15:09:08;4.43;;;2.80;;
4963;SDS011;2497;47.410;9.740;2023-07-20T15:11:35;3.47;;;2.53;;
4963;SDS011;2497;47.410;9.740;2023-07-20T15:14:02;5.90;;;2.43;;
4963;SDS011;2497;47.410;9.740;2023-07-20T15:16:29;4.27;;;2.83;;
4963;SDS011;2497;47.410;9.740;2023-07-20T15:18:56;8.57;;;2.93;;
4963;SDS011;2497;47.410;9.740;2023-07-20T15:21:25;4.70;;;2.97;;
4963;SDS011;2497;47.410;9.740;2023-07-20T15:23:55;6.57;;;3.13;;
4963;SDS011;2497;47.410;9.740;2023-07-20T15:26:22;8.60;;;3.10;;
4963;SDS011;2497;47.410;9.740;2023-07-20T15:28:50;6.80;;;3.00;;
4963;SDS011;2497;47.410;9.740;2023-07-20T15:31:17;4.20;;;2.70;;
4963;SDS011;2497;47.410;9.740;2023-07-20T15:33:44;4.00;;;2.37;;